Tiempo atmosférico en la estación meteorológica de Haría, Las Palmas (277 m.)



Fecha
DESCASC
Temp. máxima en grados centígrados (hora)
DESCASC
Temp. mínima en grados centígrados (hora)
DESCASC
Temp. media en grados centígrados
DESCASC
Racha de viento máxima en m/sg (hora)
DESCASC
Velocidad máxima media en intervalos de 10 minutos(hora)
DESCASC
Precipitaciones diarias en mm
DESCASC
Precipitaciones de 00:00 a 06:00 en mm
DESCASC
Precipitaciones de 06:00 a 12:00 en mm
DESCASC
Precipitaciones de 12:00 a 18:00 en mm
DESCASC
Precipitaciones de 18:00 a 24:00 en mm
DESCASC
31-03-2020 19.6 (13:40) 15.2 (23:40) 17.4 12.22 (00:50) 8.06 (00:50) 0 0 0 0 0
30-03-2020 19.2 (14:30) 12.5 (03:30) 15.9 14.44 (18:30) 9.17 (16:50) 0 0 0 0 0
29-03-2020 18.7 (13:30) 10.8 (00:00) 14.8 8.61 (17:50) 4.72 (14:20) 0 0 0 0 0
28-03-2020 19.5 (14:30) 11.8 (00:00) 15.7 8.89 (14:00) 5.83 (17:10) 0.2 0.2 0 0 0
27-03-2020 18.5 (14:10) 14 (00:00) 16.3 13.06 (08:50) 7.22 (05:50) 0 0 0 0 0
26-03-2020 16.7 (10:30) 11.8 (00:00) 14.3 8.33 (17:00) 5.83 (17:20) 1.2 0 0.8 0.4 0
25-03-2020 18.1 (15:50) 13.3 (00:00) 15.7 9.72 (16:30) 7.22 (15:20) 0.2 0.2 0 0 0
24-03-2020 18.5 (13:40) 13.3 (00:00) 15.9 16.94 (19:40) 11.11 (12:10) 3.4 0.2 0.2 0 3
23-03-2020 16.5 (14:50) 10.8 (00:00) 13.7 13.89 (18:20) 9.44 (18:20) 7.6 4.2 1.6 0.2 1.6
22-03-2020 18 (15:40) 11.9 (04:00) 14.9 14.72 (18:10) 8.61 (18:20) 2.4 0.2 0.2 0 2
21-03-2020 17.6 (15:20) 13.4 (00:00) 15.5 14.72 (19:10) 8.89 (15:40) 0.2 0.2 0 0 0
20-03-2020 19 (13:50) 13.9 (00:00) 16.4 16.67 (00:20) 11.39 (00:10) 0.2 0 0 0 0.2
19-03-2020 18.9 (14:10) 13.3 (00:00) 16.1 17.5 (15:50) 12.22 (20:20) 0 0 0 0 0
18-03-2020 17.5 (13:40) 12.7 (00:00) 15.1 20.28 (19:30) 13.61 (18:10) 1 0.2 0.6 0 0.2
17-03-2020 17.4 (13:00) 12.1 (00:00) 14.8 13.89 (09:50) 8.61 (12:10) 0.2 0.2 0 0 0
16-03-2020 19 (13:10) 13.5 (00:00) 16.3 13.89 (10:10) 10 (10:20) 0 0 0 0 0
15-03-2020 18.1 (15:30) 13.8 (00:00) 16 12.22 (17:00) 8.33 (23:20) 0 0 0 0 0
14-03-2020 18.5 (13:00) 14.2 (00:00) 16.3 11.39 (08:50) 6.11 (19:10) 0 0 0 0 0
13-03-2020 18.6 (13:50) 14.7 (05:10) 16.7 10.28 (16:20) 6.11 (14:40) 0 0 0 0 0
12-03-2020 24.9 (13:10) 13.3 (00:00) 19.1 8.61 (13:40) 5.28 (17:40) 0 0 0 0 0
11-03-2020 22.3 (10:10) 13.5 (00:00) 17.9 5.83 (14:20) 3.89 (12:30) 0 0 0 0 0
10-03-2020 20.9 (14:10) 13.8 (00:00) 17.3 8.33 (17:20) 5.56 (18:50) 0 0 0 0 0
09-03-2020 22.2 (11:10) 13.1 (00:00) 17.7 7.5 (15:30) 5 (15:30) 0 0 0 0 0
08-03-2020 22.5 (16:10) 14.5 (00:00) 18.5 10.28 (21:40) 6.94 (21:40) 0 0 0 0 0
07-03-2020 18.5 (14:00) 14 (00:00) 16.3 13.33 (07:10) 8.33 (07:10) 0 0 0 0 0
06-03-2020 18.2 (13:40) 13.8 (00:00) 16 21.11 (16:50) 10.83 (12:50) 1 0.8 0.2 0 0
05-03-2020 18.1 (13:50) 14.3 (00:00) 16.2 11.94 (20:30) 7.78 (23:30) 0 0 0 0 0
04-03-2020 21.8 (11:20) 14.8 (00:00) 18.3 11.94 (05:00) 6.67 (00:40) 0 0 0 0 0

Gráficas

Temp. máximas Temp. mínimas Temp. medias Precipitaciones Rachas de viento máximas Velocidades máximas media en intervalos de 10 minutos

Datos horarios

Fecha y hora oficial Temperatura (ºC) Velocidad del viento (km/h) Dirección del viento Racha (km/h) Dirección de racha Precipitación (mm) Presión (hPa) Tendencia (hPa) Humedad (%)
2020-04-02 23:00:00 14 6 Norte 19 Norte 0 -- -- 77
2020-04-02 22:00:00 14.5 9 Norte 21 Nordeste 0 -- -- 76
2020-04-02 21:00:00 14.7 6 Norte 22 Norte 0 -- -- 74
2020-04-02 20:00:00 15.1 13 Nordeste 24 Nordeste 0 -- -- 72
2020-04-02 19:00:00 16 14 Norte 25 Nordeste 0 -- -- 68
2020-04-02 18:00:00 16.9 17 Nordeste 30 Norte 0 -- -- 66
2020-04-02 17:00:00 18.4 16 Norte 29 Nordeste 0 -- -- 59
2020-04-02 16:00:00 18.4 17 Nordeste 33 Nordeste 0 -- -- 58
2020-04-02 15:00:00 18.7 18 Nordeste 31 Nordeste 0 -- -- 59
2020-04-02 14:00:00 18.2 15 Nordeste 26 Nordeste 0 -- -- 62
2020-04-02 13:00:00 18.3 15 Nordeste 27 Nordeste 0 -- -- 63
2020-04-02 12:00:00 17.6 17 Nordeste 28 Nordeste 0 -- -- 63
2020-04-02 11:00:00 16.9 15 Nordeste 25 Nordeste 0 -- -- 66
2020-04-02 10:00:00 15.8 15 Nordeste 24 Nordeste 0 -- -- 72
2020-04-02 09:00:00 15.2 12 Nordeste 21 Norte 0 -- -- 81
2020-04-02 08:00:00 13.4 5 Norte 17 Norte 0 -- -- 84
2020-04-02 07:00:00 13.8 10 Norte 18 Noroeste 0 -- -- 86
2020-04-02 06:00:00 13.1 9 Noroeste 18 Norte 0 -- -- 88
2020-04-02 05:00:00 13.6 9 Noroeste 14 Noroeste 0 -- -- 89
2020-04-02 04:00:00 13.7 8 Noroeste 15 Noroeste 0 -- -- 90
2020-04-02 03:00:00 13.7 5 Norte 13 Norte 0 -- -- 88
2020-04-02 02:00:00 14.5 5 Norte 12 Norte 0 -- -- 88
2020-04-02 01:00:00 14.4 4 Nordeste 10 Noroeste 0 -- -- 88
2020-04-02 00:00:00 14.1 5 Noroeste 9 Noroeste 0 -- -- 85
2020-04-01 23:00:00 14.5 5 Norte 10 Norte 0 -- -- 84
2020-04-01 22:00:00 15 6 Norte 11 Nordeste 0 -- -- 82
2020-04-01 21:00:00 15.4 7 Norte 19 Norte 0 -- -- 79
2020-04-01 20:00:00 16.2 11 Norte 23 Nordeste 0 -- -- 76
2020-04-01 19:00:00 17.6 18 Nordeste 28 Norte 0 -- -- 70
2020-04-01 18:00:00 19.6 15 Norte 26 Noroeste 0 -- -- 62
2020-04-01 17:00:00 19.2 15 Noroeste 28 Noroeste 0 -- -- 63
2020-04-01 16:00:00 19.5 18 Noroeste 36 Noroeste 0 -- -- 63
2020-04-01 15:00:00 21 18 Noroeste 31 Oeste 0 -- -- 60
2020-04-01 14:00:00 20 15 Oeste 26 Noroeste 0 -- -- 64
2020-04-01 13:00:00 18.6 8 Oeste 31 Oeste 0 -- -- 68
2020-04-01 12:00:00 18.8 13 Nordeste 28 Este 0 -- -- 68
2020-04-01 11:00:00 18.7 10 Nordeste 21 Este 0 -- -- 68
2020-04-01 10:00:00 17.5 9 Nordeste 14 Nordeste 0 -- -- 76
2020-04-01 09:00:00 15.7 9 Noroeste 18 Noroeste 0 -- -- 85
2020-04-01 08:00:00 14.1 11 Noroeste 21 Noroeste 0 -- -- 88
2020-04-01 07:00:00 14 14 Noroeste 21 Noroeste 0 -- -- 87
2020-04-01 06:00:00 14.5 7 Oeste 15 Noroeste 0 -- -- 88
2020-04-01 05:00:00 13.6 9 Noroeste 15 Noroeste 0 -- -- 89
2020-04-01 04:00:00 14.4 3 Oeste 11 Oeste 0 -- -- 86
2020-04-01 03:00:00 14.9 7 Noroeste 14 Noroeste 0 -- -- 85
2020-04-01 02:00:00 15.3 8 Noroeste 15 Noroeste 0 -- -- 85
2020-04-01 01:00:00 15.4 6 Noroeste 18 Noroeste 0 -- -- 84
2020-04-01 00:00:00 15.4 7 Noroeste 16 Noroeste 0 -- -- 85
2020-03-31 23:00:00 15.5 8 Noroeste 21 Noroeste 0 -- -- 84
2020-03-31 22:00:00 15.9 12 Oeste 28 Oeste 0 -- -- 85
2020-03-31 21:00:00 16 13 Noroeste 32 Oeste 0 -- -- 83
2020-03-31 20:00:00 16.6 19 Oeste 35 Oeste 0 -- -- 82
2020-03-31 19:00:00 17.9 17 Noroeste 36 Oeste 0 -- -- 76
2020-03-31 18:00:00 18.2 22 Oeste 37 Oeste 0 -- -- 74
2020-03-31 17:00:00 19.4 23 Oeste 40 Oeste 0 -- -- 73
2020-03-31 16:00:00 19.3 22 Oeste 36 Oeste 0 -- -- 71
2020-03-31 15:00:00 19.5 21 Oeste 37 Oeste 0 -- -- 70
2020-03-31 14:00:00 19.3 21 Oeste 33 Oeste 0 -- -- 71
2020-03-31 13:00:00 19 21 Oeste 32 Oeste 0 -- -- 73
2020-03-31 12:00:00 18.7 21 Oeste 35 Oeste 0 -- -- 76
2020-03-31 11:00:00 17.9 21 Oeste 38 Oeste 0 -- -- 82
2020-03-31 10:00:00 16.5 20 Oeste 31 Oeste 0 -- -- 88
2020-03-31 09:00:00 16 18 Oeste 31 Oeste 0 -- -- 90
2020-03-31 08:00:00 15.5 15 Oeste 27 Oeste 0 -- -- 90
2020-03-31 07:00:00 15.5 16 Oeste 29 Oeste 0 -- -- 90
2020-03-31 06:00:00 15.6 13 Noroeste 30 Oeste 0 -- -- 90
2020-03-31 05:00:00 15.7 15 Noroeste 40 Noroeste 0 -- -- 90
2020-03-31 04:00:00 15.8 24 Oeste 44 Oeste 0 -- -- 92
2020-03-31 03:00:00 16.1 19 Oeste 40 Sudoeste 0 -- -- 93
2020-03-31 02:00:00 16 22 Oeste 40 Oeste 0 -- -- 91
2020-03-31 01:00:00 16.1 28 Oeste 44 Oeste 0 -- -- 88
2020-03-31 00:00:00 16.4 25 Oeste 44 Oeste 0 -- -- 88
2020-03-30 23:00:00 16.3 23 Oeste 50 Oeste 0 -- -- 86
2020-03-30 22:00:00 16.2 27 Oeste 50 Oeste 0 -- -- 86
2020-03-30 21:00:00 16.4 26 Oeste 52 Oeste 0 -- -- 86
2020-03-30 20:00:00 16.7 32 Oeste 50 Oeste 0 -- -- 84
2020-03-30 19:00:00 16.7 33 Oeste 52 Oeste 0 -- -- 84
2020-03-30 18:00:00 17.3 31 Oeste 48 Oeste 0 -- -- 77
2020-03-30 17:00:00 18.7 32 Oeste 48 Oeste 0 -- -- 72
2020-03-30 16:00:00 18.9 27 Oeste 42 Oeste 0 -- -- 73
2020-03-30 15:00:00 19.2 30 Oeste 45 Oeste 0 -- -- 70
2020-03-30 14:00:00 19.1 27 Oeste 44 Oeste 0 -- -- 71
2020-03-30 13:00:00 18.9 21 Oeste 39 Oeste 0 -- -- 70
2020-03-30 12:00:00 17.5 18 Oeste 33 Oeste 0 -- -- 75
2020-03-30 11:00:00 17.6 17 Oeste 30 Oeste 0 -- -- 76
2020-03-30 10:00:00 16.7 19 Oeste 31 Oeste 0 -- -- 81
2020-03-30 09:00:00 15.7 9 Oeste 15 Oeste 0 -- -- 89
2020-03-30 08:00:00 13.9 2 Sudoeste 9 Oeste 0 -- -- 90
2020-03-30 07:00:00 13.9 3 Sudoeste 11 Sudoeste 0 -- -- 89
2020-03-30 06:00:00 13.6 4 Sudoeste 9 Oeste 0 -- -- 89
2020-03-30 05:00:00 12.9 3 Oeste 8 Oeste 0 -- -- 88
2020-03-30 04:00:00 12.9 3 Oeste 6 Oeste 0 -- -- 87
2020-03-30 03:00:00 12.7 3 Noroeste 6 Oeste 0 -- -- 86
2020-03-30 02:00:00 13.1 5 Oeste 8 Oeste 0 -- -- 85
2020-03-30 01:00:00 14.1 4 Oeste 10 Oeste 0 -- -- 83
2020-03-30 00:00:00 14.4 3 Noroeste 10 Noroeste 0 -- -- 82
2020-03-29 23:00:00 14.6 6 Noroeste 12 Noroeste 0 -- -- 81
2020-03-29 22:00:00 14.9 6 Noroeste 16 Noroeste 0 -- -- 79
2020-03-29 21:00:00 15.4 9 Noroeste 17 Oeste 0 -- -- 78
2020-03-29 20:00:00 16.3 12 Oeste 21 Noroeste 0 -- -- 75
2020-03-29 19:00:00 16.8 13 Oeste 22 Noroeste 0 -- -- 70
2020-03-29 18:00:00 18.5 8 Sudoeste 31 Noroeste 0 -- -- 65
2020-03-29 17:00:00 16.4 8 Sudeste 17 Este 0 -- -- 75
2020-03-29 16:00:00 16.9 9 Este 20 Sudeste 0 -- -- 73
2020-03-29 15:00:00 16.7 11 Sudeste 23 Sudeste 0 -- -- 74
2020-03-29 14:00:00 17.6 12 Nordeste 28 Este 0 -- -- 70
2020-03-29 13:00:00 17.3 13 Este 21 Este 0 -- -- 75
2020-03-29 12:00:00 17.8 11 Este 22 Este 0 -- -- 71
2020-03-29 11:00:00 16.4 8 Sudeste 12 Este 0 -- -- 79
2020-03-29 10:00:00 16.6 7 Este 13 Este 0 -- -- 86
2020-03-29 09:00:00 13.4 3 Oeste 11 Noroeste 0 -- -- 94
2020-03-29 08:00:00 10.9 9 Noroeste 13 Noroeste 0 -- -- 93
2020-03-29 07:00:00 10.9 10 Noroeste 12 Noroeste 0 -- -- 94
2020-03-29 06:00:00 11 10 Noroeste 14 Noroeste 0 -- -- 93
2020-03-29 05:00:00 11.4 9 Noroeste 11 Noroeste 0 -- -- 92
2020-03-29 04:00:00 11.7 8 Noroeste 12 Noroeste 0 -- -- 91
2020-03-29 00:00:00 13 8 Noroeste 10 Oeste 0 -- -- 88
2020-03-28 23:00:00 14 5 Noroeste 10 Norte 0 -- -- 85
2020-03-28 22:00:00 14.6 7 Noroeste 15 Noroeste 0 -- -- 84
2020-03-28 21:00:00 15.2 11 Noroeste 21 Noroeste 0 -- -- 82
2020-03-28 20:00:00 15.5 13 Norte 25 Noroeste 0 -- -- 78
2020-03-28 19:00:00 16.4 17 Noroeste 26 Noroeste 0 -- -- 74
2020-03-28 18:00:00 17.4 17 Noroeste 29 Noroeste 0 -- -- 71
2020-03-28 17:00:00 18.4 20 Noroeste 29 Noroeste 0 -- -- 65
2020-03-28 16:00:00 18.8 21 Noroeste 30 Noroeste 0 -- -- 64
2020-03-28 15:00:00 18.9 17 Noroeste 27 Noroeste 0 -- -- 64
2020-03-28 14:00:00 19.3 17 Noroeste 32 Noroeste 0 -- -- 63
2020-03-28 13:00:00 17.9 10 Nordeste 24 Norte 0 -- -- 63
2020-03-28 12:00:00 17.4 6 Norte 21 Noroeste 0 -- -- 67
2020-03-28 11:00:00 17.1 14 Norte 21 Norte 0 -- -- 72
2020-03-28 10:00:00 17.2 8 Nordeste 17 Nordeste 0 -- -- 78
2020-03-28 09:00:00 15.6 7 Noroeste 14 Noroeste 0 -- -- 88
2020-03-28 08:00:00 14.1 7 Noroeste 10 Noroeste 0 -- -- 94
2020-03-28 07:00:00 12 8 Noroeste 11 Oeste 0 -- -- 93
2020-03-28 06:00:00 12.3 7 Noroeste 12 Norte 0 -- -- 91
2020-03-28 05:00:00 12.9 5 Noroeste 9 Noroeste 0 -- -- 90
2020-03-28 04:00:00 13.1 8 Noroeste 22 Noroeste 0.2 -- -- 90
2020-03-28 03:00:00 13.2 10 Noroeste 13 Noroeste 0 -- -- 89
2020-03-28 02:00:00 12.9 8 Noroeste 11 Noroeste 0 -- -- 88
2020-03-28 01:00:00 13.8 7 Noroeste 18 Noroeste 0 -- -- 85
2020-03-28 00:00:00 14.4 12 Noroeste 16 Noroeste 0 -- -- 85
2020-03-27 23:00:00 14.6 8 Noroeste 17 Noroeste 0 -- -- 85
2020-03-27 22:00:00 14.7 12 Noroeste 22 Noroeste 0 -- -- 83
2020-03-27 21:00:00 14.7 14 Noroeste 19 Noroeste 0 -- -- 82
2020-03-27 20:00:00 14.8 8 Noroeste 21 Noroeste 0 -- -- 80
2020-03-27 19:00:00 15.5 12 Noroeste 21 Oeste 0 -- -- 76
2020-03-27 18:00:00 16.4 14 Noroeste 27 Noroeste 0 -- -- 74
2020-03-27 17:00:00 17.6 17 Noroeste 35 Oeste 0 -- -- 72
2020-03-27 16:00:00 17.5 17 Noroeste 32 Noroeste 0 -- -- 71
2020-03-27 15:00:00 17.7 20 Noroeste 38 Oeste 0 -- -- 70
2020-03-27 14:00:00 18.3 20 Oeste 31 Oeste 0 -- -- 67
2020-03-27 13:00:00 17 17 Noroeste 38 Oeste 0 -- -- 71
2020-03-27 12:00:00 17.6 23 Noroeste 36 Noroeste 0 -- -- 73
2020-03-27 11:00:00 17.5 20 Noroeste 39 Noroeste 0 -- -- 70
2020-03-27 10:00:00 17 19 Noroeste 36 Oeste 0 -- -- 75
2020-03-27 09:00:00 15.8 24 Noroeste 47 Noroeste 0 -- -- 82
2020-03-27 08:00:00 15.4 18 Noroeste 37 Noroeste 0 -- -- 86
2020-03-27 07:00:00 14.5 19 Oeste 33 Noroeste 0 -- -- 87
2020-03-27 06:00:00 14.4 24 Oeste 37 Noroeste 0 -- -- 86
2020-03-27 05:00:00 14.1 15 Oeste 30 Oeste 0 -- -- 86
2020-03-27 04:00:00 14.1 11 Noroeste 22 Noroeste 0 -- -- 87
2020-03-27 03:00:00 14.2 13 Noroeste 21 Oeste 0 -- -- 88
2020-03-27 02:00:00 14.1 15 Noroeste 20 Noroeste 0 -- -- 88
2020-03-27 01:00:00 14.1 11 Noroeste 20 Noroeste 0 -- -- 88
2020-03-27 00:00:00 14.4 16 Noroeste 25 Noroeste 0 -- -- 87
2020-03-26 23:00:00 14.5 14 Noroeste 23 Noroeste 0 -- -- 87
2020-03-26 22:00:00 14.7 14 Noroeste 23 Noroeste 0 -- -- 87
2020-03-26 21:00:00 14.8 12 Noroeste 19 Noroeste 0 -- -- 86
2020-03-26 20:00:00 14.9 9 Noroeste 19 Noroeste 0 -- -- 84
2020-03-26 19:00:00 15.2 11 Noroeste 25 Noroeste 0 -- -- 75
2020-03-26 18:00:00 15.4 19 Noroeste 29 Noroeste 0 -- -- 79
2020-03-26 17:00:00 15.7 19 Noroeste 30 Norte 0 -- -- 80
2020-03-26 16:00:00 15.8 20 Noroeste 27 Noroeste 0 -- -- 81
2020-03-26 15:00:00 15.7 12 Noroeste 22 Noroeste 0 -- -- 82
2020-03-26 14:00:00 15.3 15 Noroeste 22 Noroeste 0.2 -- -- 83
2020-03-26 13:00:00 15.3 13 Noroeste 21 Oeste 0.2 -- -- 84
2020-03-26 12:00:00 15 15 Noroeste 22 Oeste 0.8 -- -- 85
2020-03-26 11:00:00 15.8 15 Noroeste 24 Oeste 0 -- -- 77
2020-03-26 10:00:00 16.1 15 Noroeste 22 Oeste 0 -- -- 76
2020-03-26 09:00:00 15.3 15 Noroeste 23 Noroeste 0 -- -- 79
2020-03-26 08:00:00 14.6 9 Noroeste 19 Noroeste 0 -- -- 85
2020-03-26 07:00:00 12.8 16 Noroeste 20 Oeste 0 -- -- 87
2020-03-26 06:00:00 11.8 9 Noroeste 18 Noroeste 0 -- -- 88
2020-03-26 05:00:00 12.1 11 Noroeste 18 Noroeste 0 -- -- 89
2020-03-26 04:00:00 12.4 12 Noroeste 19 Noroeste 0 -- -- 88
2020-03-26 03:00:00 12.4 13 Noroeste 18 Noroeste 0 -- -- 86
2020-03-26 02:00:00 12.4 9 Noroeste 16 Norte 0 -- -- 84
2020-03-26 01:00:00 13.4 12 Noroeste 19 Noroeste 0 -- -- 83
2020-03-26 00:00:00 13.5 9 Noroeste 19 Norte 0 -- -- 82
2020-03-25 23:00:00 13.8 9 Noroeste 18 Noroeste 0 -- -- 83
2020-03-25 22:00:00 14.1 9 Noroeste 16 Norte 0 -- -- 82
2020-03-25 21:00:00 14 7 Noroeste 15 Norte 0 -- -- 79
2020-03-25 20:00:00 14.2 8 Norte 22 Norte 0 -- -- 77
2020-03-25 19:00:00 14.9 17 Norte 27 Norte 0 -- -- 75
2020-03-25 18:00:00 16.2 17 Norte 31 Norte 0 -- -- 70
2020-03-25 17:00:00 17.3 22 Norte 35 Noroeste 0 -- -- 66
2020-03-25 16:00:00 17.6 19 Noroeste 35 Noroeste 0 -- -- 67
2020-03-25 15:00:00 17.6 19 Noroeste 32 Noroeste 0 -- -- 66
2020-03-25 14:00:00 16.2 15 Noroeste 29 Noroeste 0 -- -- 74
2020-03-25 13:00:00 16.4 21 Noroeste 31 Noroeste 0 -- -- 72
2020-03-25 12:00:00 16.6 20 Noroeste 32 Noroeste 0 -- -- 70
2020-03-25 11:00:00 16.2 20 Noroeste 31 Noroeste 0 -- -- 72
2020-03-25 10:00:00 16.6 15 Norte 28 Norte 0 -- -- 72
2020-03-25 09:00:00 15.1 15 Norte 27 Norte 0 -- -- 79
2020-03-25 08:00:00 14.6 14 Norte 31 Norte 0 -- -- 79
2020-03-25 07:00:00 13.5 16 Norte 28 Norte 0 -- -- 81
2020-03-25 06:00:00 13.5 18 Norte 28 Norte 0 -- -- 82
2020-03-25 05:00:00 13.3 17 Noroeste 27 Noroeste 0 -- -- 82
2020-03-25 04:00:00 13.4 15 Noroeste 24 Norte 0 -- -- 83
2020-03-25 03:00:00 13.7 14 Norte 25 Norte 0 -- -- 82
2020-03-25 02:00:00 14 15 Norte 30 Noroeste 0 -- -- 85
2020-03-25 01:00:00 13.9 16 Noroeste 31 Norte 0.2 -- -- 86
2020-03-25 00:00:00 14.4 19 Norte 32 Norte 0 -- -- 84
2020-03-24 23:00:00 14.2 17 Noroeste 31 Noroeste 0 -- -- 84
2020-03-24 22:00:00 14.2 20 Noroeste 37 Noroeste 0 -- -- 86
2020-03-24 21:00:00 13.9 19 Noroeste 36 Norte 0 -- -- 86
2020-03-24 20:00:00 13.4 23 Noroeste 61 Noroeste 3 -- -- 86
2020-03-24 19:00:00 15.4 30 Noroeste 49 Noroeste 0 -- -- 75
2020-03-24 18:00:00 16.1 28 Noroeste 54 Noroeste 0 -- -- 71
2020-03-24 17:00:00 16.5 35 Noroeste 53 Noroeste 0 -- -- 72
2020-03-24 16:00:00 17.4 31 Noroeste 49 Noroeste 0 -- -- 69
2020-03-24 15:00:00 18.4 25 Noroeste 48 Norte 0 -- -- 66
2020-03-24 14:00:00 17.8 28 Noroeste 54 Noroeste 0 -- -- 66
2020-03-24 13:00:00 17.7 36 Noroeste 58 Noroeste 0 -- -- 69
2020-03-24 12:00:00 17.9 37 Noroeste 55 Noroeste 0 -- -- 69
2020-03-24 11:00:00 17.2 32 Noroeste 57 Noroeste 0 -- -- 73
2020-03-24 10:00:00 15 35 Noroeste 49 Noroeste 0.2 -- -- 81
2020-03-24 09:00:00 16.1 26 Noroeste 51 Noroeste 0 -- -- 78
2020-03-24 08:00:00 14.8 30 Noroeste 48 Noroeste 0 -- -- 82
2020-03-24 07:00:00 14.3 33 Noroeste 53 Noroeste 0 -- -- 81
2020-03-24 06:00:00 14.1 29 Noroeste 48 Noroeste 0 -- -- 82
2020-03-24 05:00:00 14 28 Noroeste 42 Noroeste 0 -- -- 80
2020-03-24 04:00:00 14.1 28 Noroeste 47 Noroeste 0 -- -- 77
2020-03-24 03:00:00 14 27 Noroeste 44 Noroeste 0.2 -- -- 79
2020-03-24 02:00:00 14 28 Noroeste 43 Noroeste 0 -- -- 80
2020-03-24 01:00:00 13.5 29 Noroeste 44 Norte 0 -- -- 79
2020-03-24 00:00:00 14.5 28 Noroeste 41 Noroeste 0 -- -- 79
2020-03-23 23:00:00 14.5 27 Noroeste 45 Noroeste 0 -- -- 79
2020-03-23 22:00:00 14.4 27 Noroeste 41 Noroeste 0 -- -- 79
2020-03-23 21:00:00 14 28 Noroeste 49 Noroeste 0 -- -- 77
2020-03-23 20:00:00 13.8 32 Noroeste 50 Noroeste 1.6 -- -- 82
2020-03-23 19:00:00 14.8 31 Noroeste 50 Noroeste 0 -- -- 77
2020-03-23 18:00:00 14.8 27 Noroeste 49 Noroeste 0 -- -- 79
2020-03-23 17:00:00 15.8 31 Noroeste 46 Noroeste 0 -- -- 76
2020-03-23 16:00:00 15.7 23 Noroeste 47 Noroeste 0 -- -- 74
2020-03-23 15:00:00 16.3 32 Noroeste 49 Noroeste 0 -- -- 67
2020-03-23 14:00:00 15.4 29 Noroeste 45 Noroeste 0.2 -- -- 72
2020-03-23 13:00:00 14.7 24 Noroeste 43 Noroeste 0 -- -- 74
2020-03-23 12:00:00 14.9 26 Norte 41 Norte 0 -- -- 72
2020-03-23 11:00:00 14.7 23 Noroeste 40 Noroeste 0.6 -- -- 78
2020-03-23 10:00:00 14.2 18 Noroeste 30 Noroeste 0 -- -- 74
2020-03-23 09:00:00 14 11 Norte 19 Noroeste 0 -- -- 78
2020-03-23 08:00:00 12.7 15 Noroeste 27 Noroeste 0 -- -- 80
2020-03-23 07:00:00 11.2 12 Noroeste 18 Noroeste 1 -- -- 88
2020-03-23 06:00:00 10.9 7 Noroeste 27 Noroeste 0.6 -- -- 90
2020-03-23 05:00:00 11.5 15 Noroeste 21 Noroeste 1 -- -- 91
2020-03-23 04:00:00 12.3 8 Oeste 26 Oeste 0 -- -- 91
2020-03-23 03:00:00 12 9 Oeste 26 Oeste 0 -- -- 91
2020-03-23 02:00:00 11.8 20 Oeste 42 Sudoeste 2.4 -- -- 90
2020-03-23 01:00:00 13.3 13 Oeste 26 Oeste 0.2 -- -- 89
2020-03-23 00:00:00 12.8 8 Oeste 29 Oeste 0 -- -- 89
2020-03-22 23:00:00 13.5 19 Oeste 31 Oeste 0.2 -- -- 89
2020-03-22 22:00:00 13.4 10 Oeste 30 Noroeste 0 -- -- 90
2020-03-22 21:00:00 13.4 15 Oeste 30 Oeste 0 -- -- 91
2020-03-22 20:00:00 13.1 18 Noroeste 35 Noroeste 0 -- -- 92
2020-03-22 19:00:00 13.4 21 Noroeste 53 Noroeste 1.8 -- -- 91
2020-03-22 18:00:00 14.4 20 Oeste 43 Oeste 0 -- -- 80
2020-03-22 17:00:00 17 27 Oeste 47 Oeste 0 -- -- 64
2020-03-22 16:00:00 17.4 27 Oeste 42 Oeste 0 -- -- 61
2020-03-22 15:00:00 17.5 29 Oeste 41 Oeste 0 -- -- 57
2020-03-22 14:00:00 17.7 22 Oeste 36 Oeste 0 -- -- 65
2020-03-22 13:00:00 17.3 21 Oeste 32 Oeste 0 -- -- 61
2020-03-22 12:00:00 17.1 19 Oeste 40 Noroeste 0 -- -- 58
2020-03-22 11:00:00 17 17 Noroeste 35 Sudoeste 0 -- -- 56
2020-03-22 10:00:00 15.8 16 Noroeste 32 Noroeste 0 -- -- 63
2020-03-22 09:00:00 15.4 17 Noroeste 39 Norte 0.2 -- -- 66
2020-03-22 08:00:00 14.3 20 Noroeste 34 Noroeste 0 -- -- 70
2020-03-22 07:00:00 13.2 22 Noroeste 38 Noroeste 0 -- -- 73
2020-03-22 06:00:00 13.2 22 Noroeste 42 Noroeste 0 -- -- 72
2020-03-22 05:00:00 13.3 23 Noroeste 45 Noroeste 0 -- -- 73
2020-03-22 04:00:00 11.9 19 Noroeste 50 Oeste 0.2 -- -- 79
2020-03-22 03:00:00 13.4 22 Noroeste 45 Noroeste 0 -- -- 69
2020-03-22 02:00:00 13.5 22 Noroeste 34 Noroeste 0 -- -- 71
2020-03-22 01:00:00 13.3 19 Noroeste 37 Noroeste 0 -- -- 66
2020-03-22 00:00:00 13.6 25 Noroeste 38 Noroeste 0 -- -- 70
2020-03-21 23:00:00 13.7 23 Noroeste 35 Noroeste 0 -- -- 69
2020-03-21 22:00:00 13.4 22 Noroeste 37 Noroeste 0 -- -- 72
2020-03-21 21:00:00 13.7 22 Noroeste 42 Noroeste 0 -- -- 68
2020-03-21 20:00:00 13.9 26 Noroeste 53 Noroeste 0 -- -- 66
2020-03-21 19:00:00 14.2 31 Noroeste 47 Noroeste 0 -- -- 64
2020-03-21 18:00:00 15.6 25 Noroeste 40 Noroeste 0 -- -- 59
2020-03-21 17:00:00 15.9 23 Noroeste 47 Noroeste 0 -- -- 59
2020-03-21 16:00:00 17.1 31 Noroeste 47 Noroeste 0 -- -- 51
2020-03-21 15:00:00 16.9 30 Noroeste 44 Oeste 0 -- -- 52
2020-03-21 14:00:00 16.7 21 Noroeste 44 Noroeste 0 -- -- 57
2020-03-21 13:00:00 17 24 Noroeste 43 Noroeste 0 -- -- 54
2020-03-21 12:00:00 16.3 26 Noroeste 40 Noroeste 0 -- -- 53
2020-03-21 11:00:00 16.5 23 Noroeste 38 Noroeste 0 -- -- 55
2020-03-21 10:00:00 15.6 21 Noroeste 36 Noroeste 0 -- -- 53
2020-03-21 09:00:00 14.6 27 Noroeste 38 Noroeste 0 -- -- 58
2020-03-21 08:00:00 14.1 22 Noroeste 35 Norte 0 -- -- 65
2020-03-21 07:00:00 14 19 Norte 35 Norte 0 -- -- 68
2020-03-21 06:00:00 13.9 18 Norte 33 Norte 0 -- -- 64
2020-03-21 05:00:00 13.7 19 Norte 35 Norte 0 -- -- 64
2020-03-21 04:00:00 13.7 18 Noroeste 39 Noroeste 0 -- -- 63
2020-03-21 03:00:00 13.6 18 Norte 33 Norte 0 -- -- 63
2020-03-21 02:00:00 13.8 19 Noroeste 40 Noroeste 0.2 -- -- 65
2020-03-21 01:00:00 13.7 20 Noroeste 32 Noroeste 0 -- -- 76
2020-03-21 00:00:00 13.9 19 Noroeste 33 Noroeste 0 -- -- 79
2020-03-20 23:00:00 14.2 22 Noroeste 37 Norte 0 -- -- 82
2020-03-20 22:00:00 14 18 Norte 32 Norte 0.2 -- -- 87
2020-03-20 21:00:00 14.6 23 Norte 37 Norte 0 -- -- 82
2020-03-20 20:00:00 14.9 18 Norte 36 Norte 0 -- -- 83
2020-03-20 19:00:00 14.9 20 Noroeste 33 Noroeste 0 -- -- 83
2020-03-20 18:00:00 15.7 23 Noroeste 36 Norte 0 -- -- 76
2020-03-20 17:00:00 16 26 Noroeste 55 Norte 0 -- -- 71
2020-03-20 16:00:00 18.3 22 Norte 42 Noroeste 0 -- -- 62
2020-03-20 15:00:00 17.9 28 Noroeste 42 Noroeste 0 -- -- 65
2020-03-20 14:00:00 18.5 30 Noroeste 44 Noroeste 0 -- -- 64
2020-03-20 13:00:00 18.4 29 Noroeste 40 Noroeste 0 -- -- 65
2020-03-20 12:00:00 17.3 24 Noroeste 40 Norte 0 -- -- 72
2020-03-20 11:00:00 17 24 Noroeste 38 Noroeste 0 -- -- 77
2020-03-20 10:00:00 17.1 24 Noroeste 47 Noroeste 0 -- -- 79
2020-03-20 09:00:00 15.9 28 Noroeste 46 Noroeste 0 -- -- 85
2020-03-20 08:00:00 15.4 27 Noroeste 49 Noroeste 0 -- -- 88
2020-03-20 07:00:00 15.3 29 Noroeste 45 Noroeste 0 -- -- 88
2020-03-20 06:00:00 15.3 26 Noroeste 49 Noroeste 0 -- -- 87
2020-03-20 05:00:00 15.3 27 Noroeste 40 Norte 0 -- -- 88
2020-03-20 04:00:00 15.5 24 Noroeste 43 Norte 0 -- -- 87
2020-03-20 03:00:00 15.6 24 Noroeste 48 Noroeste 0 -- -- 86
2020-03-20 02:00:00 15.6 21 Noroeste 52 Noroeste 0 -- -- 88
2020-03-20 01:00:00 15.6 32 Noroeste 60 Noroeste 0 -- -- 88
2020-03-20 00:00:00 15.8 31 Noroeste 60 Noroeste 0 -- -- 88
2020-03-19 23:00:00 15.7 42 Noroeste 63 Noroeste 0 -- -- 88
2020-03-19 22:00:00 15.7 41 Noroeste 59 Noroeste 0 -- -- 89
2020-03-19 21:00:00 15.7 39 Noroeste 59 Noroeste 0 -- -- 87
2020-03-19 20:00:00 15.8 42 Noroeste 60 Noroeste 0 -- -- 87
2020-03-19 19:00:00 16.1 36 Noroeste 57 Noroeste 0 -- -- 86
2020-03-19 18:00:00 16.5 32 Noroeste 50 Noroeste 0 -- -- 81
2020-03-19 17:00:00 16.4 38 Noroeste 58 Noroeste 0 -- -- 83
2020-03-19 16:00:00 17.6 41 Noroeste 63 Noroeste 0 -- -- 75
2020-03-19 15:00:00 17.9 39 Noroeste 58 Noroeste 0 -- -- 74
2020-03-19 14:00:00 18.8 30 Noroeste 50 Noroeste 0 -- -- 64
2020-03-19 13:00:00 18.3 37 Noroeste 52 Noroeste 0 -- -- 63
2020-03-19 12:00:00 18.4 28 Noroeste 46 Noroeste 0 -- -- 57
2020-03-19 11:00:00 17.6 30 Noroeste 46 Noroeste 0 -- -- 64
2020-03-19 10:00:00 16.7 27 Noroeste 39 Norte 0 -- -- 68
2020-03-19 09:00:00 15.8 23 Norte 35 Noroeste 0 -- -- 71
2020-03-19 08:00:00 14.3 16 Norte 30 Noroeste 0 -- -- 76
2020-03-19 07:00:00 13.4 15 Noroeste 31 Norte 0 -- -- 81
2020-03-19 06:00:00 13.9 17 Noroeste 41 Noroeste 0 -- -- 82
2020-03-19 05:00:00 14.3 28 Noroeste 49 Noroeste 0 -- -- 82
2020-03-19 04:00:00 14.5 35 Noroeste 51 Noroeste 0 -- -- 80
2020-03-19 03:00:00 14.6 29 Noroeste 54 Noroeste 0 -- -- 75
2020-03-19 02:00:00 14.4 32 Noroeste 53 Oeste 0 -- -- 73
2020-03-19 01:00:00 14.1 32 Noroeste 56 Noroeste 0 -- -- 74
2020-03-19 00:00:00 13.6 34 Noroeste 58 Noroeste 0 -- -- 74
2020-03-18 23:00:00 13.6 33 Noroeste 62 Noroeste 0.2 -- -- 78
2020-03-18 22:00:00 14.3 44 Noroeste 64 Noroeste 0 -- -- 72
2020-03-18 21:00:00 14.4 41 Noroeste 65 Noroeste 0 -- -- 76
2020-03-18 20:00:00 13.7 40 Noroeste 73 Norte 0 -- -- 79
2020-03-18 19:00:00 15.2 42 Noroeste 69 Noroeste 0 -- -- 73
2020-03-18 18:00:00 15.7 35 Noroeste 65 Noroeste 0 -- -- 67
2020-03-18 17:00:00 15.5 39 Noroeste 62 Noroeste 0 -- -- 68
2020-03-18 16:00:00 15.4 30 Noroeste 54 Noroeste 0 -- -- 69
2020-03-18 15:00:00 17 32 Noroeste 54 Noroeste 0 -- -- 59
2020-03-18 14:00:00 17.3 30 Noroeste 49 Noroeste 0 -- -- 55
2020-03-18 13:00:00 17.2 35 Noroeste 57 Noroeste 0 -- -- 56
2020-03-18 12:00:00 17.3 35 Noroeste 56 Noroeste 0 -- -- 59
2020-03-18 11:00:00 16.6 32 Noroeste 49 Noroeste 0 -- -- 64
2020-03-18 10:00:00 15.3 26 Noroeste 50 Noroeste 0.2 -- -- 77
2020-03-18 09:00:00 14.4 34 Noroeste 52 Noroeste 0 -- -- 74
2020-03-18 08:00:00 14.1 26 Noroeste 42 Noroeste 0 -- -- 70
2020-03-18 07:00:00 13.2 27 Noroeste 58 Noroeste 0.4 -- -- 82
2020-03-18 06:00:00 13.4 28 Noroeste 51 Noroeste 0.2 -- -- 81
2020-03-18 05:00:00 13.4 24 Noroeste 46 Noroeste 0 -- -- 80
2020-03-18 04:00:00 13.2 33 Noroeste 51 Noroeste 0 -- -- 78
2020-03-18 03:00:00 13.6 24 Noroeste 41 Noroeste 0 -- -- 76
2020-03-18 02:00:00 13.3 18 Noroeste 36 Noroeste 0 -- -- 76
2020-03-18 01:00:00 13.2 20 Norte 38 Noroeste 0 -- -- 73
2020-03-18 00:00:00 13.6 23 Noroeste 37 Noroeste 0 -- -- 70
2020-03-17 23:00:00 13.3 21 Noroeste 37 Norte 0 -- -- 76
2020-03-17 22:00:00 13 19 Noroeste 42 Norte 0 -- -- 75
2020-03-17 21:00:00 13.3 27 Noroeste 45 Norte 0 -- -- 71
2020-03-17 20:00:00 13.9 24 Norte 40 Noroeste 0 -- -- 70
2020-03-17 19:00:00 14.2 24 Norte 46 Noroeste 0 -- -- 63
2020-03-17 18:00:00 14.7 24 Norte 43 Noroeste 0 -- -- 66
2020-03-17 17:00:00 15.4 22 Norte 41 Norte 0 -- -- 62
2020-03-17 16:00:00 16.1 25 Norte 42 Norte 0 -- -- 57
2020-03-17 15:00:00 16 27 Norte 44 Norte 0 -- -- 61
2020-03-17 14:00:00 15.5 31 Norte 44 Norte 0 -- -- 63
2020-03-17 13:00:00 17.4 27 Norte 45 Norte 0 -- -- 57
2020-03-17 12:00:00 17 31 Norte 46 Norte 0 -- -- 54
2020-03-17 11:00:00 14.5 23 Norte 45 Norte 0 -- -- 74
2020-03-17 10:00:00 14.4 29 Norte 50 Norte 0 -- -- 71
2020-03-17 09:00:00 13.9 27 Norte 45 Norte 0 -- -- 75
2020-03-17 08:00:00 13.3 27 Norte 44 Norte 0 -- -- 75
2020-03-17 07:00:00 13.4 26 Norte 44 Norte 0 -- -- 69
2020-03-17 06:00:00 13.2 24 Norte 42 Norte 0 -- -- 75
2020-03-17 05:00:00 12.5 24 Norte 44 Norte 0.2 -- -- 82
2020-03-17 04:00:00 13.9 23 Norte 42 Norte 0 -- -- 65
2020-03-17 03:00:00 13.8 22 Norte 45 Norte 0 -- -- 66
2020-03-17 02:00:00 13.9 27 Norte 46 Norte 0 -- -- 67
2020-03-17 01:00:00 14 24 Norte 45 Norte 0 -- -- 70
2020-03-17 00:00:00 13.8 18 Norte 44 Norte 0 -- -- 74
2020-03-16 23:00:00 14.1 23 Norte 48 Norte 0 -- -- 68
2020-03-16 22:00:00 14.2 24 Norte 45 Noroeste 0 -- -- 68
2020-03-16 21:00:00 14 27 Norte 47 Noroeste 0 -- -- 72
2020-03-16 20:00:00 14.7 24 Norte 45 Norte 0 -- -- 74
2020-03-16 19:00:00 14.8 23 Norte 46 Norte 0 -- -- 75
2020-03-16 18:00:00 15.1 31 Norte 49 Norte 0 -- -- 79
2020-03-16 17:00:00 15.1 31 Norte 50 Norte 0 -- -- 82
2020-03-16 16:00:00 16.4 31 Norte 46 Norte 0 -- -- 73
2020-03-16 15:00:00 16.6 28 Norte 46 Norte 0 -- -- 74
2020-03-16 14:00:00 17.3 32 Norte 50 Norte 0 -- -- 73
2020-03-16 13:00:00 18.6 30 Norte 46 Norte 0 -- -- 64
2020-03-16 12:00:00 18.4 33 Norte 49 Nordeste 0 -- -- 63
2020-03-16 11:00:00 18.2 31 Norte 50 Norte 0 -- -- 63
2020-03-16 10:00:00 16.9 31 Norte 47 Norte 0 -- -- 68
2020-03-16 09:00:00 15.1 24 Norte 42 Norte 0 -- -- 77
2020-03-16 08:00:00 15.3 24 Norte 47 Norte 0 -- -- 78
2020-03-16 07:00:00 15 27 Norte 45 Norte 0 -- -- 78
2020-03-16 06:00:00 14.9 22 Noroeste 44 Noroeste 0 -- -- 83
2020-03-16 05:00:00 14.5 24 Noroeste 44 Norte 0 -- -- 81
2020-03-16 04:00:00 14.9 22 Norte 46 Norte 0 -- -- 82
2020-03-16 03:00:00 14.6 20 Noroeste 42 Noroeste 0 -- -- 83
2020-03-16 02:00:00 14.8 23 Norte 40 Norte 0 -- -- 78
2020-03-16 01:00:00 15 24 Norte 42 Norte 0 -- -- 80
2020-03-16 00:00:00 15.2 27 Norte 43 Norte 0 -- -- 81
2020-03-15 23:00:00 15.2 22 Norte 36 Noroeste 0 -- -- 81
2020-03-15 22:00:00 15.6 18 Norte 41 Noroeste 0 -- -- 81
2020-03-15 21:00:00 15.5 25 Noroeste 39 Noroeste 0 -- -- 80
2020-03-15 20:00:00 15.3 27 Noroeste 43 Noroeste 0 -- -- 78
2020-03-15 19:00:00 15.5 26 Noroeste 42 Noroeste 0 -- -- 75
2020-03-15 18:00:00 16 24 Norte 37 Norte 0 -- -- 69
2020-03-15 17:00:00 16.7 29 Noroeste 44 Noroeste 0 -- -- 63
2020-03-15 16:00:00 16.9 23 Norte 40 Noroeste 0 -- -- 65
2020-03-15 15:00:00 17.1 22 Noroeste 40 Noroeste 0 -- -- 70
2020-03-15 14:00:00 16.9 22 Noroeste 37 Noroeste 0 -- -- 68
2020-03-15 13:00:00 17.4 24 Noroeste 39 Norte 0 -- -- 63
2020-03-15 12:00:00 16.9 23 Norte 41 Noroeste 0 -- -- 61
2020-03-15 11:00:00 17.3 24 Noroeste 37 Noroeste 0 -- -- 61
2020-03-15 10:00:00 16.6 19 Noroeste 30 Noroeste 0 -- -- 65
2020-03-15 09:00:00 15.6 16 Norte 25 Noroeste 0 -- -- 74
2020-03-15 08:00:00 15 15 Noroeste 30 Noroeste 0 -- -- 75
2020-03-15 07:00:00 14.2 19 Noroeste 32 Noroeste 0 -- -- 78
2020-03-15 06:00:00 14.2 27 Noroeste 41 Noroeste 0 -- -- 80
2020-03-15 05:00:00 14.5 24 Noroeste 36 Noroeste 0 -- -- 80
2020-03-15 04:00:00 14.5 19 Noroeste 28 Noroeste 0 -- -- 82
2020-03-15 03:00:00 14.4 15 Noroeste 24 Noroeste 0 -- -- 81
2020-03-15 02:00:00 14.1 10 Noroeste 16 Noroeste 0 -- -- 85
2020-03-15 01:00:00 13.9 11 Noroeste 21 Noroeste 0 -- -- 85
2020-03-15 00:00:00 14.2 14 Noroeste 22 Noroeste 0 -- -- 84
2020-03-14 23:00:00 14.2 13 Noroeste 25 Noroeste 0 -- -- 84
2020-03-14 22:00:00 14.3 17 Noroeste 29 Noroeste 0 -- -- 81
2020-03-14 21:00:00 14.6 19 Noroeste 29 Noroeste 0 -- -- 82
2020-03-14 20:00:00 14.6 17 Noroeste 32 Noroeste 0 -- -- 80
2020-03-14 19:00:00 15.6 19 Noroeste 30 Noroeste 0 -- -- 75
2020-03-14 18:00:00 16.6 16 Norte 28 Noroeste 0 -- -- 66
2020-03-14 17:00:00 17 18 Noroeste 27 Noroeste 0 -- -- 61
2020-03-14 16:00:00 17.4 18 Norte 28 Nordeste 0 -- -- 64
2020-03-14 15:00:00 17.9 19 Norte 32 Norte 0 -- -- 59
2020-03-14 14:00:00 18.2 19 Norte 34 Norte 0 -- -- 58
2020-03-14 13:00:00 18.5 19 Nordeste 32 Nordeste 0 -- -- 66
2020-03-14 12:00:00 17.2 18 Nordeste 32 Nordeste 0 -- -- 73
2020-03-14 11:00:00 16.7 20 Norte 31 Norte 0 -- -- 73
2020-03-14 10:00:00 16.7 17 Noroeste 32 Noroeste 0 -- -- 66
2020-03-14 09:00:00 15.8 22 Noroeste 41 Norte 0 -- -- 65
2020-03-14 08:00:00 15.1 19 Norte 31 Norte 0 -- -- 74
2020-03-14 07:00:00 14.8 18 Norte 30 Norte 0 -- -- 78
2020-03-14 06:00:00 14.8 16 Norte 27 Norte 0 -- -- 74
2020-03-14 05:00:00 14.3 14 Norte 24 Norte 0 -- -- 82
2020-03-14 04:00:00 14.5 10 Norte 26 Norte 0 -- -- 78
2020-03-14 03:00:00 14.8 15 Nordeste 25 Nordeste 0 -- -- 85
2020-03-14 02:00:00 15 10 Norte 22 Nordeste 0 -- -- 85
2020-03-14 01:00:00 14.9 9 Nordeste 21 Nordeste 0 -- -- 85
2020-03-14 00:00:00 15.1 14 Nordeste 24 Nordeste 0 -- -- 84
2020-03-13 23:00:00 15 14 Norte 26 Nordeste 0 -- -- 83
2020-03-13 22:00:00 15.1 13 Nordeste 30 Norte 0 -- -- 82
2020-03-13 21:00:00 15.5 19 Norte 29 Norte 0 -- -- 81
2020-03-13 20:00:00 15.3 17 Norte 32 Norte 0 -- -- 80
2020-03-13 19:00:00 15.7 17 Norte 34 Norte 0 -- -- 79
2020-03-13 18:00:00 16.7 20 Norte 31 Norte 0 -- -- 78
2020-03-13 17:00:00 17.2 20 Norte 37 Nordeste 0 -- -- 74
2020-03-13 16:00:00 17.7 20 Nordeste 35 Nordeste 0 -- -- 73
2020-03-13 15:00:00 17.9 20 Nordeste 35 Nordeste 0 -- -- 70
2020-03-13 14:00:00 18.4 19 Nordeste 32 Norte 0 -- -- 69
2020-03-13 13:00:00 18.2 18 Nordeste 30 Nordeste 0 -- -- 69
2020-03-13 12:00:00 18.3 16 Nordeste 33 Norte 0 -- -- 71
2020-03-13 11:00:00 17.6 19 Norte 35 Nordeste 0 -- -- 74
2020-03-13 10:00:00 16.6 15 Norte 30 Norte 0 -- -- 81
2020-03-13 09:00:00 15.6 15 Norte 24 Nordeste 0 -- -- 85
2020-03-13 08:00:00 15.1 14 Norte 27 Nordeste 0 -- -- 87
2020-03-13 07:00:00 14.8 7 Norte 24 Nordeste 0 -- -- 88
2020-03-13 06:00:00 14.7 8 Norte 19 Norte 0 -- -- 88
2020-03-13 05:00:00 14.9 5 Nordeste 23 Nordeste 0 -- -- 88
2020-03-13 04:00:00 14.8 17 Nordeste 24 Nordeste 0 -- -- 89
2020-03-13 03:00:00 14.9 12 Nordeste 22 Nordeste 0 -- -- 90
2020-03-13 02:00:00 15.1 12 Nordeste 23 Norte 0 -- -- 92
2020-03-13 01:00:00 15.1 9 Nordeste 20 Nordeste 0 -- -- 93
2020-03-13 00:00:00 15.1 9 Nordeste 19 Norte 0 -- -- 93
2020-03-12 23:00:00 15 7 Nordeste 17 Norte 0 -- -- 93
2020-03-12 22:00:00 14.9 7 Norte 14 Nordeste 0 -- -- 90
2020-03-12 21:00:00 15.3 3 Este 9 Norte 0 -- -- 89
2020-03-12 20:00:00 15.6 8 Norte 23 Norte 0 -- -- 89
2020-03-12 19:00:00 16.2 14 Norte 24 Nordeste 0 -- -- 85
2020-03-12 18:00:00 17.8 18 Nordeste 27 Nordeste 0 -- -- 79
2020-03-12 17:00:00 19.3 17 Nordeste 27 Nordeste 0 -- -- 74
2020-03-12 16:00:00 21 14 Nordeste 22 Nordeste 0 -- -- 66
2020-03-12 15:00:00 22.2 13 Nordeste 22 Nordeste 0 -- -- 60
2020-03-12 14:00:00 23.9 14 Este 31 Este 0 -- -- 48
2020-03-12 13:00:00 24.8 15 Este 23 Sudeste 0 -- -- 43
2020-03-12 12:00:00 24.5 12 Sudeste 23 Este 0 -- -- 36
2020-03-12 11:00:00 23.6 10 Este 21 Este 0 -- -- 32
2020-03-12 10:00:00 23 5 Sudeste 15 Este 0 -- -- 37
2020-03-12 09:00:00 22.1 5 Sudeste 12 Noroeste 0 -- -- 28
2020-03-12 08:00:00 16.3 11 Noroeste 12 Oeste 0 -- -- 49
2020-03-12 07:00:00 15 2 Noroeste 9 Noroeste 0 -- -- 53
2020-03-12 06:00:00 13.3 6 Noroeste 14 Oeste 0 -- -- 64
2020-03-12 05:00:00 13.7 10 Noroeste 14 Oeste 0 -- -- 88
2020-03-12 04:00:00 14.9 0 Calma 14 Noroeste 0 -- -- 90
2020-03-12 03:00:00 14.6 6 Noroeste 10 Noroeste 0 -- -- 85
2020-03-12 02:00:00 16.4 4 Norte 12 Sudeste 0 -- -- 73
2020-03-12 01:00:00 18.7 4 Sudeste 12 Noroeste 0 -- -- 27
2020-03-12 00:00:00 17.9 9 Noroeste 12 Noroeste 0 -- -- 27
2020-03-11 23:00:00 18.6 4 Oeste 8 Noroeste 0 -- -- 32
2020-03-11 22:00:00 20.4 4 Norte 17 Oeste 0 -- -- 31
2020-03-11 21:00:00 19.8 6 Sudoeste 19 Oeste 0 -- -- 63
2020-03-11 20:00:00 17.9 12 Noroeste 14 Noroeste 0 -- -- 79
2020-03-11 19:00:00 18.3 6 Sudeste 11 Sudeste 0 -- -- 82
2020-03-11 18:00:00 19.2 4 Sudeste 11 Sudeste 0 -- -- 78
2020-03-11 17:00:00 20.2 6 Este 17 Este 0 -- -- 75
2020-03-11 16:00:00 21.6 8 Este 16 Este 0 -- -- 70
2020-03-11 15:00:00 21.5 10 Este 21 Este 0 -- -- 70
2020-03-11 14:00:00 21.2 11 Sudeste 20 Este 0 -- -- 71
2020-03-11 13:00:00 21.3 10 Este 21 Sudeste 0 -- -- 70
2020-03-11 12:00:00 21.6 8 Este 20 Este 0 -- -- 64
2020-03-11 11:00:00 20.3 9 Sudeste 18 Este 0 -- -- 69
2020-03-11 10:00:00 22.2 7 Este 15 Este 0 -- -- 38
2020-03-11 09:00:00 16.5 5 Noroeste 19 Oeste 0 -- -- 91
2020-03-11 08:00:00 14.1 3 Oeste 9 Noroeste 0 -- -- 94
2020-03-11 07:00:00 14 4 Noroeste 9 Noroeste 0 -- -- 94
2020-03-11 06:00:00 13.9 6 Noroeste 10 Noroeste 0 -- -- 92
2020-03-11 05:00:00 14.7 4 Norte 12 Nordeste 0 -- -- 93
2020-03-11 04:00:00 14.7 5 Nordeste 12 Norte 0 -- -- 93
2020-03-11 03:00:00 14.8 5 Norte 13 Norte 0 -- -- 94
2020-03-11 02:00:00 14.3 5 Nordeste 17 Nordeste 0 -- -- 93
2020-03-11 01:00:00 14.3 6 Nordeste 14 Nordeste 0 -- -- 93
2020-03-11 00:00:00 14.4 6 Nordeste 16 Norte 0 -- -- 93
2020-03-10 23:00:00 15 8 Norte 14 Norte 0 -- -- 92
2020-03-10 22:00:00 15.3 7 Nordeste 17 Norte 0 -- -- 91
2020-03-10 21:00:00 15.4 9 Nordeste 18 Norte 0 -- -- 90
2020-03-10 20:00:00 15.4 10 Nordeste 26 Norte 0 -- -- 88
2020-03-10 19:00:00 16 19 Norte 26 Norte 0 -- -- 84
2020-03-10 18:00:00 17.9 17 Norte 30 Nordeste 0 -- -- 76
2020-03-10 17:00:00 19.3 15 Nordeste 25 Nordeste 0 -- -- 71
2020-03-10 16:00:00 20 11 Nordeste 21 Nordeste 0 -- -- 69
2020-03-10 15:00:00 20.6 11 Nordeste 21 Nordeste 0 -- -- 64
2020-03-10 14:00:00 20.7 12 Nordeste 23 Este 0 -- -- 66
2020-03-10 13:00:00 20.4 12 Nordeste 25 Nordeste 0 -- -- 66
2020-03-10 12:00:00 20.1 9 Nordeste 23 Nordeste 0 -- -- 65
2020-03-10 11:00:00 19.3 14 Nordeste 23 Nordeste 0 -- -- 67
2020-03-10 10:00:00 18.2 10 Nordeste 18 Nordeste 0 -- -- 80
2020-03-10 09:00:00 17 8 Nordeste 15 Norte 0 -- -- 89
2020-03-10 08:00:00 15.4 7 Noroeste 22 Norte 0 -- -- 91
2020-03-10 07:00:00 14.4 10 Noroeste 21 Norte 0 -- -- 91
2020-03-10 06:00:00 14.4 11 Noroeste 21 Norte 0 -- -- 92
2020-03-10 05:00:00 14.6 13 Norte 29 Norte 0 -- -- 92
2020-03-10 04:00:00 14.4 14 Norte 23 Norte 0 -- -- 94
2020-03-10 03:00:00 13.8 10 Noroeste 18 Noroeste 0 -- -- 94
2020-03-10 02:00:00 14 7 Noroeste 15 Noroeste 0 -- -- 94
2020-03-10 01:00:00 14.2 5 Nordeste 16 Nordeste 0 -- -- 93
2020-03-10 00:00:00 14 5 Norte 12 Norte 0 -- -- 93
2020-03-09 23:00:00 14.3 4 Norte 13 Norte 0 -- -- 92
2020-03-09 22:00:00 14.6 6 Noroeste 13 Noroeste 0 -- -- 91
2020-03-09 21:00:00 15.2 7 Noroeste 16 Norte 0 -- -- 89
2020-03-09 20:00:00 15.5 10 Noroeste 15 Norte 0 -- -- 88
2020-03-09 19:00:00 16.2 7 Norte 15 Norte 0 -- -- 85
2020-03-09 18:00:00 17.7 8 Norte 24 Norte 0 -- -- 80
2020-03-09 17:00:00 18.8 15 Nordeste 24 Nordeste 0 -- -- 76
2020-03-09 16:00:00 19.9 14 Nordeste 27 Nordeste 0 -- -- 72
2020-03-09 15:00:00 20.6 15 Nordeste 26 Norte 0 -- -- 67
2020-03-09 14:00:00 21.8 12 Nordeste 22 Nordeste 0 -- -- 60
2020-03-09 13:00:00 21.6 14 Nordeste 23 Nordeste 0 -- -- 63
2020-03-09 12:00:00 21.7 13 Nordeste 23 Nordeste 0 -- -- 59
2020-03-09 11:00:00 21.5 7 Nordeste 18 Este 0 -- -- 64
2020-03-09 10:00:00 18.6 9 Nordeste 18 Nordeste 0 -- -- 82
2020-03-09 09:00:00 17.2 14 Norte 22 Norte 0 -- -- 87
2020-03-09 08:00:00 14.8 8 Noroeste 19 Norte 0 -- -- 94
2020-03-09 07:00:00 14 10 Noroeste 17 Norte 0 -- -- 92
2020-03-09 06:00:00 14.7 9 Norte 15 Norte 0 -- -- 86
2020-03-09 05:00:00 13.5 7 Noroeste 14 Noroeste 0 -- -- 94
2020-03-09 04:00:00 13.5 5 Oeste 6 Oeste 0 -- -- 94
2020-03-09 03:00:00 14.9 2 Norte 15 Este 0 -- -- 93
2020-03-09 02:00:00 15.3 7 Este 20 Nordeste 0 -- -- 93
2020-03-09 01:00:00 15.6 10 Este 21 Nordeste 0 -- -- 93
2020-03-09 00:00:00 15.5 9 Norte 25 Norte 0 -- -- 93
2020-03-08 23:00:00 15.6 12 Nordeste 21 Este 0 -- -- 91
2020-03-08 22:00:00 15.8 13 Nordeste 37 Norte 0 -- -- 87
2020-03-08 21:00:00 16.3 19 Norte 32 Norte 0 -- -- 77
2020-03-08 20:00:00 16.6 7 Norte 30 Norte 0 -- -- 74
2020-03-08 19:00:00 17 21 Norte 28 Norte 0 -- -- 76
2020-03-08 18:00:00 19 18 Norte 26 Nordeste 0 -- -- 69
2020-03-08 17:00:00 21.1 18 Nordeste 24 Norte 0 -- -- 63
2020-03-08 16:00:00 22.3 8 Nordeste 22 Nordeste 0 -- -- 52
2020-03-08 15:00:00 21.7 10 Nordeste 28 Este 0 -- -- 60
2020-03-08 14:00:00 21.8 16 Este 36 Este 0 -- -- 63
2020-03-08 13:00:00 21.2 15 Este 31 Este 0 -- -- 67
2020-03-08 12:00:00 20.1 16 Este 36 Este 0 -- -- 72
2020-03-08 11:00:00 19.1 12 Nordeste 22 Nordeste 0 -- -- 80
2020-03-08 10:00:00 17.6 10 Nordeste 17 Nordeste 0 -- -- 93
2020-03-08 09:00:00 16.1 10 Nordeste 17 Nordeste 0 -- -- 97
2020-03-08 08:00:00 15 4 Norte 14 Norte 0 -- -- 97
2020-03-08 07:00:00 14.7 7 Norte 15 Noroeste 0 -- -- 96
2020-03-08 06:00:00 14.6 9 Noroeste 17 Noroeste 0 -- -- 96
2020-03-08 05:00:00 14.7 8 Noroeste 16 Noroeste 0 -- -- 96
2020-03-08 04:00:00 14.9 6 Noroeste 12 Noroeste 0 -- -- 96
2020-03-08 03:00:00 15.1 5 Norte 13 Norte 0 -- -- 95
2020-03-08 02:00:00 15.1 5 Norte 12 Norte 0 -- -- 95
2020-03-08 01:00:00 15.2 5 Nordeste 15 Nordeste 0 -- -- 94
2020-03-08 00:00:00 15.1 7 Norte 19 Norte 0 -- -- 94
2020-03-07 23:00:00 15 6 Norte 17 Norte 0 -- -- 93
2020-03-07 22:00:00 15.1 7 Norte 20 Nordeste 0 -- -- 91
2020-03-07 21:00:00 15.1 8 Nordeste 24 Nordeste 0 -- -- 90
2020-03-07 20:00:00 15.3 11 Nordeste 23 Norte 0 -- -- 86
2020-03-07 19:00:00 15.7 14 Norte 31 Norte 0 -- -- 81
2020-03-07 18:00:00 16.5 23 Norte 36 Norte 0 -- -- 77
2020-03-07 17:00:00 17.5 26 Norte 42 Norte 0 -- -- 73
2020-03-07 16:00:00 18.3 25 Norte 39 Norte 0 -- -- 70
2020-03-07 15:00:00 18.4 24 Norte 36 Nordeste 0 -- -- 70
2020-03-07 14:00:00 18.5 21 Nordeste 37 Nordeste 0 -- -- 70
2020-03-07 13:00:00 17.7 22 Nordeste 46 Nordeste 0 -- -- 72
2020-03-07 12:00:00 17.2 25 Nordeste 42 Nordeste 0 -- -- 74
2020-03-07 11:00:00 16.8 21 Nordeste 37 Nordeste 0 -- -- 77
2020-03-07 10:00:00 15.9 22 Nordeste 39 Nordeste 0 -- -- 80
2020-03-07 09:00:00 15.7 20 Nordeste 34 Nordeste 0 -- -- 80
2020-03-07 08:00:00 14.8 17 Nordeste 48 Nordeste 0 -- -- 86
2020-03-07 07:00:00 14.1 28 Nordeste 46 Nordeste 0 -- -- 86
2020-03-07 06:00:00 14.1 24 Nordeste 46 Nordeste 0 -- -- 85
2020-03-07 05:00:00 14.3 25 Nordeste 41 Nordeste 0 -- -- 83
2020-03-07 04:00:00 14.4 16 Norte 42 Norte 0 -- -- 80
2020-03-07 03:00:00 14.6 22 Nordeste 42 Nordeste 0 -- -- 80
2020-03-07 02:00:00 14.4 24 Norte 45 Nordeste 0 -- -- 81
2020-03-07 01:00:00 14.3 22 Nordeste 45 Nordeste 0 -- -- 79
2020-03-07 00:00:00 14.5 22 Norte 45 Norte 0 -- -- 79
2020-03-06 23:00:00 14.8 21 Norte 52 Norte 0 -- -- 78
2020-03-06 22:00:00 14.6 21 Norte 44 Norte 0 -- -- 78
2020-03-06 21:00:00 14.6 28 Norte 55 Norte 0 -- -- 76
2020-03-06 20:00:00 14.7 32 Norte 48 Norte 0 -- -- 75
2020-03-06 19:00:00 15 28 Norte 49 Norte 0 -- -- 74
2020-03-06 18:00:00 15.9 31 Norte 54 Norte 0 -- -- 70
2020-03-06 17:00:00 17.4 29 Norte 76 Norte 0 -- -- 64
2020-03-06 16:00:00 17.5 36 Norte 54 Norte 0 -- -- 63
2020-03-06 15:00:00 17.7 34 Nordeste 54 Nordeste 0 -- -- 58
2020-03-06 14:00:00 18.2 31 Norte 55 Nordeste 0 -- -- 63
2020-03-06 13:00:00 17.9 35 Norte 54 Nordeste 0 -- -- 64
2020-03-06 12:00:00 16.9 35 Nordeste 58 Nordeste 0 -- -- 69
2020-03-06 11:00:00 16.5 32 Nordeste 54 Norte 0 -- -- 69
2020-03-06 10:00:00 15.6 27 Norte 51 Norte 0.2 -- -- 71
2020-03-06 09:00:00 14.8 28 Nordeste 55 Nordeste 0 -- -- 74
2020-03-06 08:00:00 14.1 23 Norte 48 Nordeste 0 -- -- 78
2020-03-06 07:00:00 13.9 24 Norte 51 Nordeste 0 -- -- 79
2020-03-06 06:00:00 14.3 26 Nordeste 46 Norte 0 -- -- 82
2020-03-06 05:00:00 13.9 26 Norte 49 Norte 0 -- -- 86
2020-03-06 04:00:00 14.2 24 Norte 41 Norte 0 -- -- 93
2020-03-06 03:00:00 14.8 23 Norte 43 Norte 0.4 -- -- 96
2020-03-06 02:00:00 14.9 28 Norte 50 Norte 0.4 -- -- 95
2020-03-06 01:00:00 15 25 Norte 40 Norte 0 -- -- 94
2020-03-06 00:00:00 15.5 26 Norte 42 Norte 0 -- -- 92
2020-03-05 23:00:00 16.2 20 Norte 32 Norte 0 -- -- 90
2020-03-05 22:00:00 16.2 20 Norte 41 Norte 0 -- -- 89
2020-03-05 21:00:00 16 20 Norte 43 Norte 0 -- -- 88
2020-03-05 20:00:00 15.9 21 Norte 33 Norte 0 -- -- 86
2020-03-05 19:00:00 15.9 21 Norte 36 Norte 0 -- -- 82
2020-03-05 18:00:00 16.2 22 Nordeste 36 Norte 0 -- -- 80
2020-03-05 17:00:00 16.8 20 Norte 35 Norte 0 -- -- 80
2020-03-05 16:00:00 17 23 Norte 39 Norte 0 -- -- 78
2020-03-05 15:00:00 17.6 23 Norte 37 Norte 0 -- -- 75
2020-03-05 14:00:00 17.8 22 Norte 38 Norte 0 -- -- 75
2020-03-05 13:00:00 17.2 21 Norte 35 Nordeste 0 -- -- 80
2020-03-05 12:00:00 17.2 19 Norte 35 Nordeste 0 -- -- 79
2020-03-05 11:00:00 16.7 23 Norte 34 Norte 0 -- -- 82
2020-03-05 10:00:00 15.9 20 Nordeste 31 Nordeste 0 -- -- 87
2020-03-05 09:00:00 15.4 17 Norte 32 Norte 0 -- -- 89
2020-03-05 08:00:00 14.8 15 Norte 31 Norte 0 -- -- 92
2020-03-05 07:00:00 14.6 18 Norte 33 Norte 0 -- -- 93
2020-03-05 06:00:00 14.5 24 Norte 35 Norte 0 -- -- 95
2020-03-05 05:00:00 14.5 20 Norte 28 Norte 0 -- -- 95
2020-03-05 04:00:00 14.4 11 Norte 32 Norte 0 -- -- 94
2020-03-05 03:00:00 14.7 14 Norte 25 Norte 0 -- -- 94
2020-03-05 02:00:00 15 12 Nordeste 27 Este 0 -- -- 93
2020-03-05 01:00:00 15.2 8 Nordeste 21 Nordeste 0 -- -- 93
2020-03-05 00:00:00 15.5 10 Norte 22 Norte 0 -- -- 92
2020-03-04 23:00:00 15.6 16 Norte 29 Norte 0 -- -- 91
2020-03-04 22:00:00 15.8 12 Norte 19 Nordeste 0 -- -- 92
2020-03-04 21:00:00 15.9 8 Nordeste 15 Norte 0 -- -- 92
2020-03-04 20:00:00 16 8 Norte 17 Norte 0 -- -- 91
2020-03-04 19:00:00 16.4 10 Norte 20 Nordeste 0 -- -- 87
2020-03-04 18:00:00 17.8 14 Norte 24 Norte 0 -- -- 82
2020-03-04 17:00:00 19 17 Nordeste 30 Nordeste 0 -- -- 76
2020-03-04 16:00:00 19.5 19 Nordeste 30 Norte 0 -- -- 73
2020-03-04 15:00:00 20.7 17 Norte 34 Norte 0 -- -- 67
2020-03-04 14:00:00 21.3 22 Norte 31 Norte 0 -- -- 64
2020-03-04 13:00:00 21.2 17 Norte 42 Nordeste 0 -- -- 61
2020-03-04 12:00:00 21.6 21 Norte 31 Norte 0 -- -- 56
2020-03-04 11:00:00 21.5 15 Norte 30 Norte 0 -- -- 56
2020-03-04 10:00:00 19.7 17 Norte 32 Norte 0 -- -- 66
2020-03-04 09:00:00 17.8 17 Norte 33 Norte 0 -- -- 76
2020-03-04 08:00:00 16.2 19 Norte 32 Norte 0 -- -- 82
2020-03-04 07:00:00 15.5 19 Norte 33 Norte 0 -- -- 82
2020-03-04 06:00:00 15.6 23 Norte 38 Norte 0 -- -- 79
2020-03-04 05:00:00 15.6 20 Norte 43 Norte 0 -- -- 79
2020-03-04 04:00:00 14.9 9 Norte 24 Nordeste 0 -- -- 86
2020-03-04 03:00:00 14.9 9 Noroeste 20 Norte 0 -- -- 88
2020-03-04 02:00:00 15.3 10 Norte 32 Norte 0 -- -- 83
2020-03-04 01:00:00 16.4 22 Norte 37 Norte 0 -- -- 70
2020-03-04 00:00:00 16.7 23 Norte 42 Norte 0 -- -- 62